METAR Data
IDs: Format: Raw Decoded Include TAF

Data at: 1621 UTC 19 Sep 2018

METAR for:KOCF (Ocala Rgnl, FL, US)
Text:KOCF 191551Z 27004KT 10SM BKN031 32/24 A2999 RMK AO2 SLP158 T03170244 $
Temperature: 31.7°C ( 89°F)
Dewpoint: 24.4°C ( 76°F) [RH = 65%]
Pressure (altimeter):29.99 inches Hg (1015.7 mb) [Sea level pressure: 1015.8 mb]
Winds:from the W (270 degrees) at 5 MPH (4 knots; 2.1 m/s)
Visibility:10 or more sm (16+ km)
Ceiling:3100 feet AGL
Clouds: broken clouds at 3100 feet AGL
QC Flag:SOME DATA ABOVE MAY BE INACCURATE!!!"$" is an indication the sensor requires maintenance.